createdAt,value
2017-08-08T00:00:32.856Z,0
2017-08-08T00:01:32.856Z,0
2017-08-08T00:02:32.853Z,0
2017-08-08T00:03:32.539Z,0
2017-08-08T00:04:32.547Z,0
2017-08-08T00:05:32.947Z,0
2017-08-08T00:06:32.837Z,0
2017-08-08T00:07:32.839Z,0
2017-08-08T00:08:32.530Z,0
2017-08-08T00:09:32.528Z,0
2017-08-08T00:10:32.931Z,0
2017-08-08T00:11:32.829Z,0
2017-08-08T00:12:32.926Z,0
2017-08-08T00:13:32.520Z,0
2017-08-08T00:14:32.627Z,0
2017-08-08T00:15:32.626Z,0
2017-08-08T00:16:32.818Z,0
2017-08-08T00:17:33.016Z,0
2017-08-08T00:18:32.506Z,0
2017-08-08T00:19:32.506Z,0
2017-08-08T00:20:32.811Z,0
2017-08-08T00:21:32.910Z,0
2017-08-08T00:22:32.902Z,0
2017-08-08T00:23:32.498Z,0
2017-08-08T00:24:32.488Z,0
2017-08-08T00:25:32.490Z,0
2017-08-08T00:26:32.895Z,0
2017-08-08T00:27:32.485Z,0
2017-08-08T00:28:32.889Z,0
2017-08-08T00:29:32.788Z,0
2017-08-08T00:30:32.790Z,0
2017-08-08T00:31:32.884Z,0
2017-08-08T00:32:32.779Z,0
2017-08-08T00:33:32.879Z,0
2017-08-08T00:34:32.782Z,0
2017-08-08T00:35:32.463Z,0
2017-08-08T00:36:32.777Z,0
2017-08-08T00:37:32.867Z,0
2017-08-08T00:38:32.877Z,0
2017-08-08T00:39:32.773Z,0
2017-08-08T00:40:32.773Z,0
2017-08-08T00:41:32.759Z,0
2017-08-08T00:42:32.765Z,0
2017-08-08T00:43:32.962Z,0
2017-08-08T00:44:32.855Z,0
2017-08-08T00:45:32.757Z,0
2017-08-08T00:46:32.756Z,0
2017-08-08T00:47:32.752Z,0
2017-08-08T00:48:32.889Z,0
2017-08-08T00:49:32.746Z,0
2017-08-08T00:50:32.843Z,0
2017-08-08T00:51:32.745Z,0
2017-08-08T00:52:32.766Z,0
2017-08-08T00:53:32.856Z,0
2017-08-08T00:54:32.433Z,0
2017-08-08T00:55:32.724Z,0
2017-08-08T00:56:32.415Z,0
2017-08-08T00:57:32.728Z,0
2017-08-08T00:58:32.413Z,0
2017-08-08T00:59:32.414Z,0
2017-08-08T01:00:32.415Z,0
2017-08-08T01:01:32.811Z,0
2017-08-08T01:02:32.714Z,0
2017-08-08T01:03:32.705Z,0
2017-08-08T01:04:32.708Z,0
2017-08-08T01:05:32.394Z,0
2017-08-08T01:06:32.696Z,0
2017-08-08T01:07:32.700Z,0
2017-08-08T01:08:32.700Z,0
2017-08-08T01:09:32.710Z,0
2017-08-08T01:10:32.689Z,0
2017-08-08T01:11:32.839Z,0
2017-08-08T01:12:32.681Z,0
2017-08-08T01:13:32.705Z,0
2017-08-08T01:14:32.792Z,0
2017-08-08T01:15:32.679Z,0
2017-08-08T01:16:32.686Z,0
2017-08-08T01:17:32.670Z,0
2017-08-08T01:18:32.356Z,0
2017-08-08T01:19:32.363Z,0
2017-08-08T01:20:32.838Z,0
2017-08-08T01:21:32.673Z,0
2017-08-08T01:22:32.662Z,0
2017-08-08T01:23:32.821Z,0
2017-08-08T01:24:32.770Z,0
2017-08-08T01:25:32.673Z,0
2017-08-08T01:26:32.760Z,0
2017-08-08T01:27:32.669Z,0
2017-08-08T01:28:32.495Z,0
2017-08-08T01:29:32.650Z,0
2017-08-08T01:30:32.651Z,0
2017-08-08T01:31:32.441Z,0
2017-08-08T01:32:32.749Z,0
2017-08-08T01:33:32.334Z,0
2017-08-08T01:34:32.639Z,0
2017-08-08T01:35:32.638Z,0
2017-08-08T01:36:32.642Z,0
2017-08-08T01:37:32.640Z,0
2017-08-08T01:38:32.318Z,0
2017-08-08T01:39:32.624Z,0
2017-08-08T01:40:32.314Z,0
2017-08-08T01:41:32.317Z,0
2017-08-08T01:42:32.624Z,0
2017-08-08T01:43:32.313Z,0
2017-08-08T01:44:32.618Z,0
2017-08-08T01:45:32.612Z,0
2017-08-08T01:46:32.619Z,0
2017-08-08T01:47:32.601Z,0
2017-08-08T01:48:32.599Z,0
2017-08-08T01:49:32.600Z,0
2017-08-08T01:50:32.597Z,0
2017-08-08T01:51:32.614Z,0
2017-08-08T01:52:32.591Z,0
2017-08-08T01:53:32.595Z,0
2017-08-08T01:54:32.693Z,0
2017-08-08T01:55:32.582Z,0
2017-08-08T01:56:32.584Z,0
2017-08-08T01:57:32.682Z,0
2017-08-08T01:58:32.270Z,0
2017-08-08T01:59:32.576Z,0
2017-08-08T02:00:32.575Z,0
2017-08-08T02:01:32.570Z,0
2017-08-08T02:02:31.952Z,0
2017-08-08T02:03:32.570Z,0
2017-08-08T02:04:32.261Z,0
2017-08-08T02:05:32.259Z,0
2017-08-08T02:06:32.249Z,0
2017-08-08T02:07:32.556Z,0
2017-08-08T02:08:32.804Z,0
2017-08-08T02:09:32.244Z,0
2017-08-08T02:10:32.554Z,0
2017-08-08T02:11:32.543Z,0
2017-08-08T02:12:32.541Z,0
2017-08-08T02:13:32.329Z,0
2017-08-08T02:14:32.536Z,0
2017-08-08T02:15:32.534Z,0
2017-08-08T02:16:32.534Z,0
2017-08-08T02:17:32.550Z,0
2017-08-08T02:18:32.528Z,0
2017-08-08T02:19:32.540Z,0
2017-08-08T02:20:32.523Z,0
2017-08-08T02:21:32.524Z,0
2017-08-08T02:22:32.517Z,0
2017-08-08T02:23:32.209Z,0
2017-08-08T02:24:32.203Z,0
2017-08-08T02:25:32.662Z,0
2017-08-08T02:26:32.518Z,0
2017-08-08T02:27:32.199Z,0
2017-08-08T02:28:32.609Z,0
2017-08-08T02:29:32.494Z,0
2017-08-08T02:30:32.334Z,0
2017-08-08T02:31:32.493Z,0
2017-08-08T02:32:31.877Z,0
2017-08-08T02:33:32.595Z,0
2017-08-08T02:34:32.639Z,0
2017-08-08T02:35:32.489Z,0
2017-08-08T02:36:32.326Z,0
2017-08-08T02:37:32.481Z,0
2017-08-08T02:38:32.474Z,0
2017-08-08T02:39:32.567Z,0
2017-08-08T02:40:32.473Z,0
2017-08-08T02:41:32.567Z,0
2017-08-08T02:42:32.471Z,0
2017-08-08T02:43:32.459Z,0
2017-08-08T02:44:32.713Z,0
2017-08-08T02:45:32.152Z,0
2017-08-08T02:46:32.557Z,0
2017-08-08T02:47:32.452Z,0
2017-08-08T02:48:32.455Z,0
2017-08-08T02:49:32.449Z,0
2017-08-08T02:50:32.455Z,0
2017-08-08T02:51:32.443Z,0
2017-08-08T02:52:32.140Z,0
2017-08-08T02:53:32.130Z,0
2017-08-08T02:54:32.144Z,0
2017-08-08T02:55:32.429Z,0
2017-08-08T02:56:32.429Z,0
2017-08-08T02:57:32.572Z,0
2017-08-08T02:58:32.527Z,0
2017-08-08T02:59:32.111Z,0
2017-08-08T03:00:32.413Z,0
2017-08-08T03:01:32.109Z,0
2017-08-08T03:02:32.411Z,0
2017-08-08T03:03:32.505Z,0
2017-08-08T03:04:32.404Z,0
2017-08-08T03:05:32.405Z,0
2017-08-08T03:06:32.505Z,0
2017-08-08T03:07:32.091Z,0
2017-08-08T03:08:32.098Z,0
2017-08-08T03:09:32.389Z,0
2017-08-08T03:10:32.390Z,0
2017-08-08T03:11:32.082Z,0
2017-08-08T03:12:32.077Z,0
2017-08-08T03:13:32.078Z,0
2017-08-08T03:14:32.072Z,0
2017-08-08T03:15:32.069Z,0
2017-08-08T03:16:32.070Z,0
2017-08-08T03:17:32.063Z,0
2017-08-08T03:18:32.375Z,0
2017-08-08T03:19:32.061Z,0
2017-08-08T03:20:32.057Z,0
2017-08-08T03:21:32.558Z,0
2017-08-08T03:22:32.182Z,0
2017-08-08T03:23:32.062Z,0
2017-08-08T03:24:32.043Z,0
2017-08-08T03:25:32.047Z,0
2017-08-08T03:26:32.038Z,0
2017-08-08T03:27:32.449Z,0
2017-08-08T03:28:32.035Z,0
2017-08-08T03:29:32.343Z,0
2017-08-08T03:30:32.035Z,0
2017-08-08T03:31:32.336Z,0
2017-08-08T03:32:32.026Z,0
2017-08-08T03:33:32.018Z,0
2017-08-08T03:34:32.166Z,0
2017-08-08T03:35:32.017Z,0
2017-08-08T03:36:32.016Z,0
2017-08-08T03:37:32.314Z,0
2017-08-08T03:38:32.419Z,4
2017-08-08T03:39:32.026Z,4
2017-08-08T03:40:32.003Z,0
2017-08-08T03:41:32.308Z,0
2017-08-08T03:42:32.307Z,4
2017-08-08T03:43:31.991Z,0
2017-08-08T03:44:31.995Z,4
2017-08-08T03:45:32.301Z,4
2017-08-08T03:46:31.989Z,8
2017-08-08T03:47:31.981Z,8
2017-08-08T03:48:31.983Z,8
2017-08-08T03:49:32.289Z,8
2017-08-08T03:50:31.975Z,12
2017-08-08T03:51:32.286Z,8
2017-08-08T03:52:31.993Z,12
2017-08-08T03:53:31.975Z,16
2017-08-08T03:54:32.069Z,20
2017-08-08T03:55:32.325Z,20
2017-08-08T03:56:32.274Z,24
2017-08-08T03:57:32.268Z,24
2017-08-08T03:58:32.267Z,28
2017-08-08T03:59:32.410Z,32
2017-08-08T04:00:31.947Z,36
2017-08-08T04:01:32.250Z,40
2017-08-08T04:02:31.947Z,44
2017-08-08T04:03:32.252Z,52
2017-08-08T04:04:32.249Z,52
2017-08-08T04:05:32.242Z,60
2017-08-08T04:06:32.244Z,68
2017-08-08T04:07:32.241Z,72
2017-08-08T04:08:31.620Z,84
2017-08-08T04:09:32.019Z,92
2017-08-08T04:10:32.247Z,100
2017-08-08T04:11:32.235Z,120
2017-08-08T04:12:32.234Z,132
2017-08-08T04:13:31.918Z,152
2017-08-08T04:14:32.228Z,172
2017-08-08T04:15:31.909Z,192
2017-08-08T04:16:32.364Z,216
2017-08-08T04:17:31.999Z,240
2017-08-08T04:18:31.901Z,264
2017-08-08T04:19:32.205Z,288
2017-08-08T04:20:32.199Z,316
2017-08-08T04:21:32.194Z,340
2017-08-08T04:22:31.989Z,368
2017-08-08T04:23:32.195Z,396
2017-08-08T04:24:31.889Z,420
2017-08-08T04:25:32.190Z,444
2017-08-08T04:26:32.194Z,468
2017-08-08T04:27:32.284Z,488
2017-08-08T04:28:32.187Z,508
2017-08-08T04:29:32.181Z,532
2017-08-08T04:30:32.276Z,556
2017-08-08T04:31:32.179Z,580
2017-08-08T04:32:32.166Z,600
2017-08-08T04:33:32.319Z,620
2017-08-08T04:34:32.157Z,628
2017-08-08T04:35:32.314Z,636
2017-08-08T04:36:32.161Z,636
2017-08-08T04:37:31.846Z,632
2017-08-08T04:38:32.158Z,632
2017-08-08T04:39:32.149Z,648
2017-08-08T04:40:32.247Z,668
2017-08-08T04:41:32.245Z,688
2017-08-08T04:42:32.085Z,704
2017-08-08T04:43:32.146Z,716
2017-08-08T04:44:32.146Z,736
2017-08-08T04:45:32.236Z,796
2017-08-08T04:46:32.133Z,860
2017-08-08T04:47:31.924Z,936
2017-08-08T04:48:32.224Z,1020
2017-08-08T04:49:32.121Z,1116
2017-08-08T04:50:31.815Z,1236
2017-08-08T04:51:31.815Z,1356
2017-08-08T04:52:31.808Z,1444
2017-08-08T04:53:32.212Z,1544
2017-08-08T04:54:32.122Z,1732
2017-08-08T04:55:32.118Z,1888
2017-08-08T04:56:32.103Z,1956
2017-08-08T04:57:32.102Z,2056
2017-08-08T04:58:32.100Z,2112
2017-08-08T04:59:32.251Z,2156
2017-08-08T05:00:32.093Z,2140
2017-08-08T05:01:32.099Z,2292
2017-08-08T05:02:32.092Z,2376
2017-08-08T05:03:32.085Z,2380
2017-08-08T05:04:31.777Z,2412
2017-08-08T05:05:32.079Z,2560
2017-08-08T05:06:31.950Z,2532
2017-08-08T05:07:32.082Z,2580
2017-08-08T05:08:31.766Z,2688
2017-08-08T05:09:32.077Z,3028
2017-08-08T05:10:32.072Z,2660
2017-08-08T05:11:32.066Z,2760
2017-08-08T05:12:32.166Z,2968
2017-08-08T05:13:32.064Z,3336
2017-08-08T05:14:32.060Z,3464
2017-08-08T05:15:32.054Z,3600
2017-08-08T05:16:32.062Z,3648
2017-08-08T05:17:31.750Z,3596
2017-08-08T05:18:31.743Z,2836
2017-08-08T05:19:32.051Z,3240
2017-08-08T05:20:32.143Z,3320
2017-08-08T05:21:32.046Z,2584
2017-08-08T05:22:32.043Z,3444
2017-08-08T05:23:32.138Z,3356
2017-08-08T05:24:31.828Z,2940
2017-08-08T05:25:32.034Z,2404
2017-08-08T05:26:32.035Z,2732
2017-08-08T05:27:32.186Z,3776
2017-08-08T05:28:32.030Z,4444
2017-08-08T05:29:32.034Z,4492
2017-08-08T05:30:32.132Z,4652
2017-08-08T05:31:32.029Z,4876
2017-08-08T05:32:32.127Z,4740
2017-08-08T05:33:32.026Z,4400
2017-08-08T05:34:32.019Z,4956
2017-08-08T05:35:32.017Z,5056
2017-08-08T05:36:32.014Z,4640
2017-08-08T05:37:31.707Z,5116
2017-08-08T05:38:32.008Z,5184
2017-08-08T05:39:31.397Z,5620
2017-08-08T05:40:32.110Z,6572
2017-08-08T05:41:31.496Z,6676
2017-08-08T05:42:32.010Z,7836
2017-08-08T05:43:32.009Z,8060
2017-08-08T05:44:31.388Z,9292
2017-08-08T05:45:32.004Z,10268
2017-08-08T05:46:32.003Z,11292
2017-08-08T05:47:31.692Z,12760
2017-08-08T05:48:31.997Z,13380
2017-08-08T05:49:31.788Z,13380
2017-08-08T05:50:31.995Z,13716
2017-08-08T05:51:31.996Z,13884
2017-08-08T05:52:31.995Z,13740
2017-08-08T05:53:31.682Z,7972
2017-08-08T05:54:31.993Z,4052
2017-08-08T05:55:31.996Z,5540
2017-08-08T05:56:31.992Z,11004
2017-08-08T05:57:31.987Z,9688
2017-08-08T05:58:32.100Z,14784
2017-08-08T05:59:31.992Z,16512
2017-08-08T06:00:31.995Z,17952
2017-08-08T06:01:31.677Z,18848
2017-08-08T06:02:31.677Z,18752
2017-08-08T06:03:31.988Z,13436
2017-08-08T06:04:32.138Z,4064
2017-08-08T06:05:31.677Z,8556
2017-08-08T06:06:31.992Z,7316
2017-08-08T06:07:32.027Z,3608
2017-08-08T06:08:31.984Z,2748
2017-08-08T06:09:31.983Z,4008
2017-08-08T06:10:32.137Z,5200
2017-08-08T06:11:31.990Z,5852
2017-08-08T06:12:31.987Z,2772
2017-08-08T06:13:31.987Z,2164
2017-08-08T06:14:31.983Z,2032
2017-08-08T06:15:31.984Z,2136
2017-08-08T06:16:31.989Z,1948
2017-08-08T06:17:32.145Z,1836
2017-08-08T06:18:31.981Z,1784
2017-08-08T06:19:31.983Z,1764
2017-08-08T06:20:31.977Z,1744
2017-08-08T06:21:31.983Z,1712
2017-08-08T06:22:31.675Z,1768
2017-08-08T06:23:32.132Z,1740
2017-08-08T06:24:31.674Z,1856
2017-08-08T06:25:31.979Z,5172
2017-08-08T06:26:31.668Z,3060
2017-08-08T06:27:31.976Z,1956
2017-08-08T06:28:31.980Z,1940
2017-08-08T06:29:32.167Z,3920
2017-08-08T06:30:31.968Z,7236
2017-08-08T06:31:31.968Z,4524
2017-08-08T06:32:31.974Z,4028
2017-08-08T06:33:32.116Z,4344
2017-08-08T06:34:32.064Z,6644
2017-08-08T06:35:31.757Z,15176
2017-08-08T06:36:31.967Z,9532
2017-08-08T06:37:31.972Z,14480
2017-08-08T06:38:31.960Z,11632
2017-08-08T06:39:32.159Z,10736
2017-08-08T06:40:32.063Z,9544
2017-08-08T06:41:31.966Z,12628
2017-08-08T06:42:31.958Z,19328
2017-08-08T06:43:31.963Z,23360
2017-08-08T06:44:32.103Z,24160
2017-08-08T06:45:31.954Z,24480
2017-08-08T06:46:31.955Z,20672
2017-08-08T06:47:31.648Z,25056
2017-08-08T06:48:31.957Z,25024
2017-08-08T06:49:31.959Z,26688
2017-08-08T06:50:31.954Z,28096
2017-08-08T06:51:31.945Z,27616
2017-08-08T06:52:31.945Z,25504
2017-08-08T06:53:31.950Z,27104
2017-08-08T06:54:31.951Z,28224
2017-08-08T06:55:31.951Z,26016
2017-08-08T06:56:32.047Z,25312
2017-08-08T06:57:31.951Z,25760
2017-08-08T06:58:31.957Z,26016
2017-08-08T06:59:32.098Z,26144
2017-08-08T07:00:31.949Z,25792
2017-08-08T07:01:31.638Z,24800
2017-08-08T07:02:31.948Z,25728
2017-08-08T07:03:31.951Z,24352
2017-08-08T07:04:31.946Z,24640
2017-08-08T07:05:32.049Z,24512
2017-08-08T07:06:31.947Z,25472
2017-08-08T07:07:31.948Z,23616
2017-08-08T07:08:31.963Z,23392
2017-08-08T07:09:31.945Z,22112
2017-08-08T07:10:31.959Z,21376
2017-08-08T07:11:31.647Z,22560
2017-08-08T07:12:31.746Z,21472
2017-08-08T07:13:31.951Z,19264
2017-08-08T07:14:32.106Z,16352
2017-08-08T07:15:31.955Z,14984
2017-08-08T07:16:31.656Z,12916
2017-08-08T07:17:31.959Z,9580
2017-08-08T07:18:31.958Z,10096
2017-08-08T07:19:31.957Z,11060
2017-08-08T07:20:32.059Z,11324
2017-08-08T07:21:31.956Z,9652
2017-08-08T07:22:31.964Z,8356
2017-08-08T07:23:31.962Z,6796
2017-08-08T07:24:32.068Z,6072
2017-08-08T07:25:32.057Z,6132
2017-08-08T07:26:31.669Z,4248
2017-08-08T07:27:31.965Z,2116
2017-08-08T07:28:31.961Z,2944
2017-08-08T07:29:31.962Z,3428
2017-08-08T07:30:31.655Z,4452
2017-08-08T07:31:31.960Z,5320
2017-08-08T07:32:31.663Z,5952
2017-08-08T07:33:31.962Z,4552
2017-08-08T07:34:32.215Z,3896
2017-08-08T07:35:31.969Z,2700
2017-08-08T07:36:31.674Z,1452
2017-08-08T07:37:31.657Z,1684
2017-08-08T07:38:31.987Z,2760
2017-08-08T07:39:32.113Z,4248
2017-08-08T07:40:31.964Z,4828
2017-08-08T07:41:31.349Z,4396
2017-08-08T07:42:32.064Z,3484
2017-08-08T07:43:31.958Z,2304
2017-08-08T07:44:31.960Z,2072
2017-08-08T07:45:32.062Z,2356
2017-08-08T07:46:31.651Z,2348
2017-08-08T07:47:31.957Z,1972
2017-08-08T07:48:31.654Z,2544
2017-08-08T07:49:31.971Z,2980
2017-08-08T07:50:31.441Z,3480
2017-08-08T07:51:31.646Z,3608
2017-08-08T07:52:31.958Z,3512
2017-08-08T07:53:31.955Z,3456
2017-08-08T07:54:31.957Z,3288
2017-08-08T07:55:31.646Z,3128
2017-08-08T07:56:31.652Z,3000
2017-08-08T07:57:32.101Z,2932
2017-08-08T07:58:31.646Z,2896
2017-08-08T07:59:31.955Z,2844
2017-08-08T08:00:31.649Z,2860
2017-08-08T08:01:31.642Z,2908
2017-08-08T08:02:31.952Z,3000
2017-08-08T08:03:31.942Z,3104
2017-08-08T08:04:31.948Z,3184
2017-08-08T08:05:32.087Z,3212
2017-08-08T08:06:31.945Z,3204
2017-08-08T08:07:31.639Z,3200
2017-08-08T08:08:31.638Z,3192
2017-08-08T08:09:31.945Z,3252
2017-08-08T08:10:31.942Z,3380
2017-08-08T08:11:31.935Z,3612
2017-08-08T08:12:31.936Z,3832
2017-08-08T08:13:31.938Z,4108
2017-08-08T08:14:31.934Z,4340
2017-08-08T08:15:31.945Z,4504
2017-08-08T08:16:31.935Z,4604
2017-08-08T08:17:31.942Z,4692
2017-08-08T08:18:31.931Z,4764
2017-08-08T08:19:31.929Z,4896
2017-08-08T08:20:31.725Z,5112
2017-08-08T08:21:31.928Z,5324
2017-08-08T08:22:32.030Z,5484
2017-08-08T08:23:31.934Z,5628
2017-08-08T08:24:31.925Z,5828
2017-08-08T08:25:31.927Z,6100
2017-08-08T08:26:31.625Z,5848
2017-08-08T08:27:31.925Z,6044
2017-08-08T08:28:31.927Z,5588
2017-08-08T08:29:31.921Z,6004
2017-08-08T08:30:32.022Z,5832
2017-08-08T08:31:31.923Z,6064
2017-08-08T08:32:31.913Z,5996
2017-08-08T08:33:31.915Z,6088
2017-08-08T08:34:31.908Z,5940
2017-08-08T08:35:31.911Z,5760
2017-08-08T08:36:31.611Z,5540
2017-08-08T08:37:31.911Z,5496
2017-08-08T08:38:31.618Z,5432
2017-08-08T08:39:31.909Z,5272
2017-08-08T08:40:31.900Z,5148
2017-08-08T08:41:31.603Z,5532
2017-08-08T08:42:31.605Z,5940
2017-08-08T08:43:31.904Z,5936
2017-08-08T08:44:32.053Z,5908
2017-08-08T08:45:31.903Z,5868
2017-08-08T08:46:31.901Z,5616
2017-08-08T08:47:31.590Z,5436
2017-08-08T08:48:31.898Z,5336
2017-08-08T08:49:31.909Z,5264
2017-08-08T08:50:31.894Z,5168
2017-08-08T08:51:31.893Z,5132
2017-08-08T08:52:31.996Z,5048
2017-08-08T08:53:31.895Z,4992
2017-08-08T08:54:31.901Z,5032
2017-08-08T08:55:31.889Z,5016
2017-08-08T08:56:31.589Z,5024
2017-08-08T08:57:31.595Z,5188
2017-08-08T08:58:31.580Z,5320
2017-08-08T08:59:31.990Z,5024
2017-08-08T09:00:31.882Z,4664
2017-08-08T09:01:31.579Z,4384
2017-08-08T09:02:31.883Z,3972
2017-08-08T09:03:31.577Z,3536
2017-08-08T09:04:31.886Z,3100
2017-08-08T09:05:31.889Z,2768
2017-08-08T09:06:31.574Z,2592
2017-08-08T09:07:31.886Z,2488
2017-08-08T09:08:31.880Z,2408
2017-08-08T09:09:31.976Z,2348
2017-08-08T09:10:31.975Z,2304
2017-08-08T09:11:31.876Z,2384
2017-08-08T09:12:31.876Z,2372
2017-08-08T09:13:31.882Z,2404
2017-08-08T09:14:31.875Z,2476
2017-08-08T09:15:31.564Z,2612
2017-08-08T09:16:31.974Z,2740
2017-08-08T09:17:31.869Z,2996
2017-08-08T09:18:31.713Z,3460
2017-08-08T09:19:31.871Z,3756
2017-08-08T09:20:31.866Z,3540
2017-08-08T09:21:31.860Z,3284
2017-08-08T09:22:31.871Z,2920
2017-08-08T09:23:31.863Z,2724
2017-08-08T09:24:31.865Z,2840
2017-08-08T09:25:31.345Z,2988
2017-08-08T09:26:31.882Z,2812
2017-08-08T09:27:31.862Z,2588
2017-08-08T09:28:31.860Z,2404
2017-08-08T09:29:31.859Z,2244
2017-08-08T09:30:31.852Z,2220
2017-08-08T09:31:31.854Z,2636
2017-08-08T09:32:31.885Z,3508
2017-08-08T09:33:31.540Z,4152
2017-08-08T09:34:31.543Z,4308
2017-08-08T09:35:31.536Z,4336
2017-08-08T09:36:31.545Z,4592
2017-08-08T09:37:31.819Z,4844
2017-08-08T09:38:31.532Z,4824
2017-08-08T09:39:31.530Z,4500
2017-08-08T09:40:31.533Z,4212
2017-08-08T09:41:31.838Z,3788
2017-08-08T09:42:31.848Z,3400
2017-08-08T09:43:31.838Z,3152
2017-08-08T09:44:31.832Z,3184
2017-08-08T09:45:31.834Z,3392
2017-08-08T09:46:31.843Z,3628
2017-08-08T09:47:31.834Z,3752
2017-08-08T09:48:31.831Z,3736
2017-08-08T09:49:31.831Z,3832
2017-08-08T09:50:31.525Z,3848
2017-08-08T09:51:31.521Z,3636
2017-08-08T09:52:31.834Z,3560
2017-08-08T09:53:31.971Z,3792
2017-08-08T09:54:31.829Z,4052
2017-08-08T09:55:31.826Z,4040
2017-08-08T09:56:31.921Z,3596
2017-08-08T09:57:31.825Z,3208
2017-08-08T09:58:31.823Z,3140
2017-08-08T09:59:31.968Z,2876
2017-08-08T10:00:31.505Z,2680
2017-08-08T10:01:31.814Z,2644
2017-08-08T10:02:31.814Z,2572
2017-08-08T10:03:31.817Z,2448
2017-08-08T10:04:31.811Z,2380
2017-08-08T10:05:31.810Z,2244
2017-08-08T10:06:31.812Z,2140
2017-08-08T10:07:31.807Z,2032
2017-08-08T10:08:31.500Z,1896
2017-08-08T10:09:31.800Z,1860
2017-08-08T10:10:31.807Z,1824
2017-08-08T10:11:31.904Z,1912
2017-08-08T10:12:31.948Z,1988
2017-08-08T10:13:31.804Z,2272
2017-08-08T10:14:31.493Z,2456
2017-08-08T10:15:31.946Z,2320
2017-08-08T10:16:31.799Z,1988
2017-08-08T10:17:31.799Z,1628
2017-08-08T10:18:31.209Z,1380
2017-08-08T10:19:31.793Z,1228
2017-08-08T10:20:31.891Z,1116
2017-08-08T10:21:31.482Z,1028
2017-08-08T10:22:31.830Z,1024
2017-08-08T10:23:31.788Z,1048
2017-08-08T10:24:31.784Z,1184
2017-08-08T10:25:31.780Z,1448
2017-08-08T10:26:31.884Z,1544
2017-08-08T10:27:31.782Z,1516
2017-08-08T10:28:31.774Z,1484
2017-08-08T10:29:31.787Z,1520
2017-08-08T10:30:31.774Z,1796
2017-08-08T10:31:31.871Z,2204
2017-08-08T10:32:31.769Z,3008
2017-08-08T10:33:31.460Z,4320
2017-08-08T10:34:31.919Z,5196
2017-08-08T10:35:31.866Z,4916
2017-08-08T10:36:31.765Z,4768
2017-08-08T10:37:31.762Z,4576
2017-08-08T10:38:31.456Z,4408
2017-08-08T10:39:31.913Z,4608
2017-08-08T10:40:31.760Z,4400
2017-08-08T10:41:31.911Z,4220
2017-08-08T10:42:31.758Z,4104
2017-08-08T10:43:31.762Z,3852
2017-08-08T10:44:31.753Z,3788
2017-08-08T10:45:31.753Z,3916
2017-08-08T10:46:31.441Z,4108
2017-08-08T10:47:31.444Z,4476
2017-08-08T10:48:31.748Z,4592
2017-08-08T10:49:31.132Z,4720
2017-08-08T10:50:31.750Z,4376
2017-08-08T10:51:31.432Z,3680
2017-08-08T10:52:31.742Z,3224
2017-08-08T10:53:31.897Z,3132
2017-08-08T10:54:31.737Z,3160
2017-08-08T10:55:31.899Z,3372
2017-08-08T10:56:31.742Z,3612
2017-08-08T10:57:31.735Z,3944
2017-08-08T10:58:31.735Z,4272
2017-08-08T10:59:31.882Z,4200
2017-08-08T11:00:31.734Z,4060
2017-08-08T11:01:31.725Z,3916
2017-08-08T11:02:31.828Z,3936
2017-08-08T11:03:31.849Z,3844
2017-08-08T11:04:31.724Z,3456
2017-08-08T11:05:31.873Z,2776
2017-08-08T11:06:31.723Z,2032
2017-08-08T11:07:31.721Z,1540
2017-08-08T11:08:31.615Z,1292
2017-08-08T11:09:31.820Z,1200
2017-08-08T11:10:31.717Z,1144
2017-08-08T11:11:31.718Z,1060
2017-08-08T11:12:31.718Z,1004
2017-08-08T11:13:31.517Z,1004
2017-08-08T11:14:31.715Z,992
2017-08-08T11:15:31.719Z,964
2017-08-08T11:16:31.712Z,928
2017-08-08T11:17:31.713Z,904
2017-08-08T11:18:31.707Z,908
2017-08-08T11:19:31.712Z,948
2017-08-08T11:20:31.699Z,1092
2017-08-08T11:21:31.701Z,1348
2017-08-08T11:22:31.703Z,1484
2017-08-08T11:23:31.697Z,1616
2017-08-08T11:24:31.696Z,1996
2017-08-08T11:25:31.701Z,2200
2017-08-08T11:26:31.700Z,2420
2017-08-08T11:27:31.707Z,2432
2017-08-08T11:28:31.691Z,2516
2017-08-08T11:29:31.696Z,2920
2017-08-08T11:30:31.689Z,3312
2017-08-08T11:31:31.688Z,3564
2017-08-08T11:32:31.682Z,3768
2017-08-08T11:33:31.686Z,3764
2017-08-08T11:34:31.686Z,3464
2017-08-08T11:35:31.795Z,2928
2017-08-08T11:36:31.678Z,2436
2017-08-08T11:37:31.777Z,1920
2017-08-08T11:38:31.566Z,1456
2017-08-08T11:39:31.671Z,1200
2017-08-08T11:40:31.670Z,1068
2017-08-08T11:41:31.672Z,1032
2017-08-08T11:42:31.666Z,1012
2017-08-08T11:43:31.769Z,1008
2017-08-08T11:44:31.669Z,1076
2017-08-08T11:45:31.683Z,1120
2017-08-08T11:46:31.667Z,1148
2017-08-08T11:47:31.665Z,1160
2017-08-08T11:48:31.860Z,1172
2017-08-08T11:49:31.810Z,1208
2017-08-08T11:50:31.764Z,1292
2017-08-08T11:51:31.662Z,1388
2017-08-08T11:52:31.654Z,1488
2017-08-08T11:53:31.651Z,1676
2017-08-08T11:54:31.645Z,1948
2017-08-08T11:55:31.648Z,2248
2017-08-08T11:56:31.644Z,2292
2017-08-08T11:57:31.642Z,2148
2017-08-08T11:58:31.335Z,2168
2017-08-08T11:59:31.644Z,2252
2017-08-08T12:00:31.789Z,2316
2017-08-08T12:01:31.637Z,2352
2017-08-08T12:02:31.333Z,2536
2017-08-08T12:03:31.328Z,2940
2017-08-08T12:04:31.633Z,3056
2017-08-08T12:05:31.022Z,2636
2017-08-08T12:06:31.624Z,2288
2017-08-08T12:07:31.626Z,2208
2017-08-08T12:08:31.627Z,1980
2017-08-08T12:09:31.628Z,1724
2017-08-08T12:10:31.623Z,1648
2017-08-08T12:11:31.619Z,1608
2017-08-08T12:12:31.626Z,1384
2017-08-08T12:13:31.614Z,1180
2017-08-08T12:14:31.774Z,1048
2017-08-08T12:15:31.615Z,1000
2017-08-08T12:16:31.308Z,940
2017-08-08T12:17:31.606Z,928
2017-08-08T12:18:31.610Z,892
2017-08-08T12:19:31.608Z,844
2017-08-08T12:20:31.609Z,812
2017-08-08T12:21:31.598Z,776
2017-08-08T12:22:31.601Z,764
2017-08-08T12:23:31.610Z,788
2017-08-08T12:24:31.602Z,804
2017-08-08T12:25:31.721Z,816
2017-08-08T12:26:31.603Z,816
2017-08-08T12:27:31.597Z,804
2017-08-08T12:28:31.599Z,792
2017-08-08T12:29:31.691Z,792
2017-08-08T12:30:31.581Z,796
2017-08-08T12:31:31.681Z,828
2017-08-08T12:32:31.684Z,860
2017-08-08T12:33:31.580Z,880
2017-08-08T12:34:31.578Z,932
2017-08-08T12:35:31.580Z,1036
2017-08-08T12:36:31.267Z,1188
2017-08-08T12:37:31.571Z,1288
2017-08-08T12:38:31.582Z,1304
2017-08-08T12:39:31.593Z,1224
2017-08-08T12:40:31.570Z,1104
2017-08-08T12:41:31.578Z,1020
2017-08-08T12:42:31.409Z,972
2017-08-08T12:43:31.559Z,944
2017-08-08T12:44:31.560Z,948
2017-08-08T12:45:31.250Z,964
2017-08-08T12:46:31.560Z,960
2017-08-08T12:47:31.554Z,956
2017-08-08T12:48:31.555Z,956
2017-08-08T12:49:31.551Z,956
2017-08-08T12:50:31.695Z,924
2017-08-08T12:51:31.551Z,888
2017-08-08T12:52:31.544Z,868
2017-08-08T12:53:31.542Z,904
2017-08-08T12:54:31.540Z,944
2017-08-08T12:55:31.737Z,964
2017-08-08T12:56:31.241Z,1008
2017-08-08T12:57:31.685Z,1092
2017-08-08T12:58:31.537Z,1156
2017-08-08T12:59:31.227Z,1192
2017-08-08T13:00:31.530Z,1200
2017-08-08T13:01:31.221Z,1300
2017-08-08T13:02:31.526Z,1492
2017-08-08T13:03:31.520Z,1604
2017-08-08T13:04:31.520Z,1696
2017-08-08T13:05:31.517Z,1848
2017-08-08T13:06:31.516Z,2184
2017-08-08T13:07:31.211Z,2484
2017-08-08T13:08:31.514Z,2552
2017-08-08T13:09:31.626Z,2576
2017-08-08T13:10:31.510Z,2824
2017-08-08T13:11:31.204Z,3076
2017-08-08T13:12:31.506Z,3484
2017-08-08T13:13:31.504Z,3916
2017-08-08T13:14:31.504Z,3980
2017-08-08T13:15:31.502Z,3584
2017-08-08T13:16:31.494Z,3108
2017-08-08T13:17:31.499Z,2872
2017-08-08T13:18:31.492Z,2520
2017-08-08T13:19:31.185Z,2636
2017-08-08T13:20:31.591Z,3408
2017-08-08T13:21:31.497Z,3920
2017-08-08T13:22:31.587Z,4240
2017-08-08T13:23:31.509Z,4268
2017-08-08T13:24:31.667Z,3484
2017-08-08T13:25:31.476Z,2212
2017-08-08T13:26:31.481Z,1256
2017-08-08T13:27:31.170Z,992
2017-08-08T13:28:31.474Z,1860
2017-08-08T13:29:31.471Z,1944
2017-08-08T13:30:31.165Z,1592
2017-08-08T13:31:31.162Z,1368
2017-08-08T13:32:31.621Z,1168
2017-08-08T13:33:31.476Z,884
2017-08-08T13:34:31.502Z,604
2017-08-08T13:35:31.467Z,616
2017-08-08T13:36:31.461Z,972
2017-08-08T13:37:31.457Z,1336
2017-08-08T13:38:31.469Z,1544
2017-08-08T13:39:31.462Z,1736
2017-08-08T13:40:31.452Z,1880
2017-08-08T13:41:31.639Z,1928
2017-08-08T13:42:31.449Z,1828
2017-08-08T13:43:31.553Z,1628